<?xml version="1.0" encoding="UTF-8" standalone="no" ?>
<gpx xmlns="http://www.topografix.com/GPX/1/1" xmlns:xsi="http://www.w3.org/2001/XMLSchema-instance" xsi:schemaLocation="http://www.topografix.com/GPX/1/1 http://www.topografix.com/GPX/1/1/gpx.xsd" version="1.1" creator="VisuGPX - https://www.visugpx.com">
  <metadata>
    <name>Les eaux de Charance</name>
    <desc><![CDATA[Excursion]]></desc>
  </metadata>
  <wpt lat="44.58204" lon="6.05929">
    <ele>1053</ele>
    <name><![CDATA[Parking du Domaine de Charance]]></name>
  </wpt>
  <wpt lat="44.57673" lon="6.05222">
    <ele>1050</ele>
    <name><![CDATA[Carrefour au bout du lac]]></name>
  </wpt>
  <wpt lat="44.57676" lon="6.05067">
    <ele>1068</ele>
    <name><![CDATA[Carrefour virage en épingle]]></name>
  </wpt>
  <wpt lat="44.57503" lon="6.04286">
    <ele>1145</ele>
    <name><![CDATA[Chemin du Canal du Drac]]></name>
  </wpt>
  <wpt lat="44.56864" lon="6.03294">
    <ele>1137</ele>
    <name><![CDATA[Panneau ferme des mille pattes]]></name>
  </wpt>
  <wpt lat="44.55974" lon="6.01771">
    <ele>1135</ele>
    <name><![CDATA[Parking / aire de pique-nique]]></name>
  </wpt>
  <wpt lat="44.57781" lon="6.04799">
    <ele>1121</ele>
    <name><![CDATA[Panneau Château]]></name>
  </wpt>
  <wpt lat="44.58204" lon="6.05928">
    <ele>1053</ele>
    <name><![CDATA[Parking du Domaine de Charance]]></name>
  </wpt>
  <trk>
    <name><![CDATA[Les eaux de Charance]]></name>
    <extensions>
      <line xmlns="http://www.topografix.com/GPX/gpx_style/0/2">
        <color>0000FF</color>
        <width>4</width>
      </line>
    </extensions>
    <trkseg>
      <trkpt lat="44.58204" lon="6.05929">
        <ele>1053</ele>
        <time>2019-12-29T10:28:29+01:00</time>
      </trkpt>
      <trkpt lat="44.58169" lon="6.05914">
        <ele>1050</ele>
        <time>2019-12-29T10:29:51+01:00</time>
      </trkpt>
      <trkpt lat="44.58152" lon="6.05892">
        <ele>1050</ele>
        <time>2019-12-29T10:30:45+01:00</time>
      </trkpt>
      <trkpt lat="44.58136" lon="6.05868">
        <ele>1049</ele>
        <time>2019-12-29T10:30:59+01:00</time>
      </trkpt>
      <trkpt lat="44.5812" lon="6.05843">
        <ele>1047</ele>
        <time>2019-12-29T10:31:13+01:00</time>
      </trkpt>
      <trkpt lat="44.58106" lon="6.05817">
        <ele>1046</ele>
        <time>2019-12-29T10:31:32+01:00</time>
      </trkpt>
      <trkpt lat="44.58086" lon="6.05793">
        <ele>1046</ele>
        <time>2019-12-29T10:31:55+01:00</time>
      </trkpt>
      <trkpt lat="44.58073" lon="6.05768">
        <ele>1046</ele>
        <time>2019-12-29T10:33:13+01:00</time>
      </trkpt>
      <trkpt lat="44.58061" lon="6.05742">
        <ele>1047</ele>
        <time>2019-12-29T10:33:26+01:00</time>
      </trkpt>
      <trkpt lat="44.58048" lon="6.05715">
        <ele>1048</ele>
        <time>2019-12-29T10:33:44+01:00</time>
      </trkpt>
      <trkpt lat="44.58031" lon="6.05692">
        <ele>1048</ele>
        <time>2019-12-29T10:33:56+01:00</time>
      </trkpt>
      <trkpt lat="44.58011" lon="6.05674">
        <ele>1048</ele>
        <time>2019-12-29T10:34:11+01:00</time>
      </trkpt>
      <trkpt lat="44.57998" lon="6.05674">
        <ele>1046</ele>
        <time>2021-05-09T12:32:38+02:00</time>
      </trkpt>
      <trkpt lat="44.5799" lon="6.05664">
        <ele>1046</ele>
        <time>2019-12-29T10:34:34+01:00</time>
      </trkpt>
      <trkpt lat="44.57969" lon="6.05652">
        <ele>1046</ele>
        <time>2019-12-29T10:34:56+01:00</time>
      </trkpt>
      <trkpt lat="44.57949" lon="6.05634">
        <ele>1046</ele>
        <time>2019-12-29T10:35:20+01:00</time>
      </trkpt>
      <trkpt lat="44.5793" lon="6.05615">
        <ele>1045</ele>
        <time>2019-12-29T10:35:34+01:00</time>
      </trkpt>
      <trkpt lat="44.57915" lon="6.0559">
        <ele>1045</ele>
        <time>2019-12-29T10:35:55+01:00</time>
      </trkpt>
      <trkpt lat="44.57901" lon="6.05564">
        <ele>1046</ele>
        <time>2019-12-29T10:36:13+01:00</time>
      </trkpt>
      <trkpt lat="44.57885" lon="6.0554">
        <ele>1046</ele>
        <time>2019-12-29T10:36:38+01:00</time>
      </trkpt>
      <trkpt lat="44.57858" lon="6.05516">
        <ele>1045</ele>
        <time>2019-12-29T10:37:08+01:00</time>
      </trkpt>
      <trkpt lat="44.57844" lon="6.05495">
        <ele>1045</ele>
        <time>2019-12-29T10:37:28+01:00</time>
      </trkpt>
      <trkpt lat="44.57818" lon="6.05465">
        <ele>1044</ele>
        <time>2019-12-29T10:37:40+01:00</time>
      </trkpt>
      <trkpt lat="44.57808" lon="6.05449">
        <ele>1045</ele>
        <time>2019-12-29T10:37:51+01:00</time>
      </trkpt>
      <trkpt lat="44.57794" lon="6.05431">
        <ele>1045</ele>
        <time>2019-12-29T10:38:04+01:00</time>
      </trkpt>
      <trkpt lat="44.57781" lon="6.05406">
        <ele>1046</ele>
        <time>2019-12-29T10:38:25+01:00</time>
      </trkpt>
      <trkpt lat="44.57767" lon="6.05382">
        <ele>1047</ele>
        <time>2019-12-29T10:39:02+01:00</time>
      </trkpt>
      <trkpt lat="44.57743" lon="6.05366">
        <ele>1046</ele>
        <time>2019-12-29T10:39:18+01:00</time>
      </trkpt>
      <trkpt lat="44.5772" lon="6.0535">
        <ele>1045</ele>
        <time>2019-12-29T10:39:31+01:00</time>
      </trkpt>
      <trkpt lat="44.57701" lon="6.05336">
        <ele>1044</ele>
        <time>2019-12-29T10:39:47+01:00</time>
      </trkpt>
      <trkpt lat="44.57682" lon="6.05326">
        <ele>1044</ele>
        <time>2019-12-29T10:40:05+01:00</time>
      </trkpt>
      <trkpt lat="44.57664" lon="6.05307">
        <ele>1044</ele>
        <time>2019-12-29T10:40:29+01:00</time>
      </trkpt>
      <trkpt lat="44.57654" lon="6.05279">
        <ele>1045</ele>
        <time>2019-12-29T10:41:04+01:00</time>
      </trkpt>
      <trkpt lat="44.57638" lon="6.05254">
        <ele>1045</ele>
        <time>2021-05-09T12:34:23+02:00</time>
      </trkpt>
      <trkpt lat="44.57649" lon="6.05238">
        <ele>1047</ele>
        <time>2019-12-29T10:41:23+01:00</time>
      </trkpt>
      <trkpt lat="44.57673" lon="6.05222">
        <ele>1050</ele>
        <time>2019-12-29T10:43:18+01:00</time>
      </trkpt>
      <trkpt lat="44.57693" lon="6.05222">
        <ele>1052</ele>
        <time>2019-12-29T10:43:54+01:00</time>
      </trkpt>
      <trkpt lat="44.57712" lon="6.05226">
        <ele>1054</ele>
        <time>2019-12-29T10:44:11+01:00</time>
      </trkpt>
      <trkpt lat="44.57732" lon="6.05228">
        <ele>1055</ele>
        <time>2019-12-29T10:44:47+01:00</time>
      </trkpt>
      <trkpt lat="44.57745" lon="6.05225">
        <ele>1056</ele>
        <time>2021-05-09T12:34:53+02:00</time>
      </trkpt>
      <trkpt lat="44.57751" lon="6.05194">
        <ele>1062</ele>
        <time>2019-12-29T10:45:09+01:00</time>
      </trkpt>
      <trkpt lat="44.57738" lon="6.05168">
        <ele>1065</ele>
        <time>2019-12-29T10:45:43+01:00</time>
      </trkpt>
      <trkpt lat="44.5773" lon="6.05151">
        <ele>1067</ele>
        <time>2019-12-29T10:47:07+01:00</time>
      </trkpt>
      <trkpt lat="44.57709" lon="6.05126">
        <ele>1067</ele>
        <time>2019-12-29T10:47:36+01:00</time>
      </trkpt>
      <trkpt lat="44.57691" lon="6.051">
        <ele>1067</ele>
        <time>2019-12-29T10:47:46+01:00</time>
      </trkpt>
      <trkpt lat="44.57676" lon="6.05067">
        <ele>1068</ele>
        <time>2019-12-29T10:48:06+01:00</time>
      </trkpt>
      <trkpt lat="44.57663" lon="6.05054">
        <ele>1067</ele>
        <time>2019-12-29T10:49:22+01:00</time>
      </trkpt>
      <trkpt lat="44.5765" lon="6.05036">
        <ele>1067</ele>
        <time>2019-12-29T10:49:42+01:00</time>
      </trkpt>
      <trkpt lat="44.57631" lon="6.05015">
        <ele>1065</ele>
        <time>2019-12-29T10:49:58+01:00</time>
      </trkpt>
      <trkpt lat="44.57619" lon="6.04988">
        <ele>1065</ele>
        <time>2019-12-29T10:50:16+01:00</time>
      </trkpt>
      <trkpt lat="44.57636" lon="6.04961">
        <ele>1071</ele>
        <time>2019-12-29T10:51:20+01:00</time>
      </trkpt>
      <trkpt lat="44.57639" lon="6.04931">
        <ele>1074</ele>
        <time>2019-12-29T10:51:43+01:00</time>
      </trkpt>
      <trkpt lat="44.57626" lon="6.04904">
        <ele>1072</ele>
        <time>2019-12-29T10:52:03+01:00</time>
      </trkpt>
      <trkpt lat="44.57617" lon="6.04884">
        <ele>1071</ele>
        <time>2021-05-09T12:36:03+02:00</time>
      </trkpt>
      <trkpt lat="44.57623" lon="6.04872">
        <ele>1073</ele>
        <time>2019-12-29T10:52:28+01:00</time>
      </trkpt>
      <trkpt lat="44.57643" lon="6.04864">
        <ele>1079</ele>
        <time>2019-12-29T10:53:06+01:00</time>
      </trkpt>
      <trkpt lat="44.57655" lon="6.04855">
        <ele>1083</ele>
        <time>2021-05-09T12:36:18+02:00</time>
      </trkpt>
      <trkpt lat="44.57672" lon="6.04859">
        <ele>1088</ele>
        <time>2019-12-29T10:53:45+01:00</time>
      </trkpt>
      <trkpt lat="44.57679" lon="6.04835">
        <ele>1092</ele>
        <time>2019-12-29T10:54:42+01:00</time>
      </trkpt>
      <trkpt lat="44.57674" lon="6.04817">
        <ele>1093</ele>
        <time>2021-05-09T12:36:33+02:00</time>
      </trkpt>
      <trkpt lat="44.5766" lon="6.04793">
        <ele>1094</ele>
        <time>2019-12-29T10:55:09+01:00</time>
      </trkpt>
      <trkpt lat="44.57642" lon="6.04772">
        <ele>1100</ele>
        <time>2019-12-29T10:55:29+01:00</time>
      </trkpt>
      <trkpt lat="44.57618" lon="6.04755">
        <ele>1105</ele>
        <time>2019-12-29T10:55:50+01:00</time>
      </trkpt>
      <trkpt lat="44.57598" lon="6.04734">
        <ele>1106</ele>
        <time>2019-12-29T10:56:16+01:00</time>
      </trkpt>
      <trkpt lat="44.57588" lon="6.04703">
        <ele>1109</ele>
        <time>2019-12-29T10:56:50+01:00</time>
      </trkpt>
      <trkpt lat="44.57581" lon="6.04667">
        <ele>1112</ele>
        <time>2019-12-29T10:57:09+01:00</time>
      </trkpt>
      <trkpt lat="44.57582" lon="6.0464">
        <ele>1117</ele>
        <time>2019-12-29T10:57:26+01:00</time>
      </trkpt>
      <trkpt lat="44.5758" lon="6.04606">
        <ele>1123</ele>
        <time>2019-12-29T10:57:52+01:00</time>
      </trkpt>
      <trkpt lat="44.57569" lon="6.04579">
        <ele>1125</ele>
        <time>2019-12-29T10:58:17+01:00</time>
      </trkpt>
      <trkpt lat="44.57552" lon="6.04555">
        <ele>1124</ele>
        <time>2019-12-29T10:58:38+01:00</time>
      </trkpt>
      <trkpt lat="44.57539" lon="6.04522">
        <ele>1127</ele>
        <time>2019-12-29T10:58:56+01:00</time>
      </trkpt>
      <trkpt lat="44.57525" lon="6.04515">
        <ele>1126</ele>
        <time>2019-12-29T11:01:20+01:00</time>
      </trkpt>
      <trkpt lat="44.57502" lon="6.04502">
        <ele>1123</ele>
        <time>2019-12-29T11:02:15+01:00</time>
      </trkpt>
      <trkpt lat="44.57485" lon="6.04484">
        <ele>1121</ele>
        <time>2019-12-29T11:02:39+01:00</time>
      </trkpt>
      <trkpt lat="44.57476" lon="6.04436">
        <ele>1125</ele>
        <time>2019-12-29T11:03:21+01:00</time>
      </trkpt>
      <trkpt lat="44.57465" lon="6.04409">
        <ele>1123</ele>
        <time>2019-12-29T11:03:33+01:00</time>
      </trkpt>
      <trkpt lat="44.5745" lon="6.04382">
        <ele>1121</ele>
        <time>2019-12-29T11:03:47+01:00</time>
      </trkpt>
      <trkpt lat="44.57436" lon="6.04357">
        <ele>1121</ele>
        <time>2019-12-29T11:04:15+01:00</time>
      </trkpt>
      <trkpt lat="44.57421" lon="6.04332">
        <ele>1120</ele>
        <time>2019-12-29T11:04:29+01:00</time>
      </trkpt>
      <trkpt lat="44.57406" lon="6.04308">
        <ele>1119</ele>
        <time>2019-12-29T11:04:47+01:00</time>
      </trkpt>
      <trkpt lat="44.57391" lon="6.04283">
        <ele>1118</ele>
        <time>2019-12-29T11:05:08+01:00</time>
      </trkpt>
      <trkpt lat="44.57367" lon="6.04253">
        <ele>1116</ele>
        <time>2019-12-29T11:05:28+01:00</time>
      </trkpt>
      <trkpt lat="44.57385" lon="6.04232">
        <ele>1121</ele>
        <time>2019-12-29T11:06:48+01:00</time>
      </trkpt>
      <trkpt lat="44.57401" lon="6.04214">
        <ele>1127</ele>
        <time>2019-12-29T11:07:14+01:00</time>
      </trkpt>
      <trkpt lat="44.57411" lon="6.0421">
        <ele>1129</ele>
        <time>2021-05-09T12:38:38+02:00</time>
      </trkpt>
      <trkpt lat="44.57427" lon="6.04236">
        <ele>1130</ele>
        <time>2019-12-29T11:07:47+01:00</time>
      </trkpt>
      <trkpt lat="44.57442" lon="6.04244">
        <ele>1132</ele>
        <time>2019-12-29T11:08:37+01:00</time>
      </trkpt>
      <trkpt lat="44.57464" lon="6.0425">
        <ele>1138</ele>
        <time>2019-12-29T11:08:57+01:00</time>
      </trkpt>
      <trkpt lat="44.57481" lon="6.04251">
        <ele>1143</ele>
        <time>2021-05-09T12:38:58+02:00</time>
      </trkpt>
      <trkpt lat="44.57503" lon="6.04286">
        <ele>1145</ele>
        <time>2019-12-29T11:09:22+01:00</time>
      </trkpt>
      <trkpt lat="44.57495" lon="6.04263">
        <ele>1145</ele>
        <time>2019-12-29T11:10:56+01:00</time>
      </trkpt>
      <trkpt lat="44.57459" lon="6.04203">
        <ele>1143</ele>
        <time>2019-12-29T11:12:29+01:00</time>
      </trkpt>
      <trkpt lat="44.57445" lon="6.04183">
        <ele>1141</ele>
        <time>2019-12-29T11:12:51+01:00</time>
      </trkpt>
      <trkpt lat="44.57433" lon="6.04151">
        <ele>1142</ele>
        <time>2019-12-29T11:13:13+01:00</time>
      </trkpt>
      <trkpt lat="44.57419" lon="6.04125">
        <ele>1140</ele>
        <time>2019-12-29T11:13:45+01:00</time>
      </trkpt>
      <trkpt lat="44.57407" lon="6.04097">
        <ele>1139</ele>
        <time>2019-12-29T11:14:09+01:00</time>
      </trkpt>
      <trkpt lat="44.57396" lon="6.04067">
        <ele>1139</ele>
        <time>2019-12-29T11:14:25+01:00</time>
      </trkpt>
      <trkpt lat="44.57383" lon="6.04039">
        <ele>1140</ele>
        <time>2019-12-29T11:14:42+01:00</time>
      </trkpt>
      <trkpt lat="44.5737" lon="6.04012">
        <ele>1140</ele>
        <time>2019-12-29T11:15:02+01:00</time>
      </trkpt>
      <trkpt lat="44.57362" lon="6.03983">
        <ele>1141</ele>
        <time>2019-12-29T11:15:23+01:00</time>
      </trkpt>
      <trkpt lat="44.57347" lon="6.03955">
        <ele>1141</ele>
        <time>2019-12-29T11:15:39+01:00</time>
      </trkpt>
      <trkpt lat="44.57328" lon="6.03936">
        <ele>1139</ele>
        <time>2019-12-29T11:15:57+01:00</time>
      </trkpt>
      <trkpt lat="44.5731" lon="6.03916">
        <ele>1138</ele>
        <time>2019-12-29T11:16:31+01:00</time>
      </trkpt>
      <trkpt lat="44.57294" lon="6.0389">
        <ele>1139</ele>
        <time>2019-12-29T11:16:45+01:00</time>
      </trkpt>
      <trkpt lat="44.57276" lon="6.03869">
        <ele>1139</ele>
        <time>2019-12-29T11:17:03+01:00</time>
      </trkpt>
      <trkpt lat="44.57256" lon="6.03853">
        <ele>1138</ele>
        <time>2019-12-29T11:17:21+01:00</time>
      </trkpt>
      <trkpt lat="44.57238" lon="6.03834">
        <ele>1137</ele>
        <time>2019-12-29T11:17:46+01:00</time>
      </trkpt>
      <trkpt lat="44.57216" lon="6.03818">
        <ele>1134</ele>
        <time>2019-12-29T11:18:05+01:00</time>
      </trkpt>
      <trkpt lat="44.57207" lon="6.03797">
        <ele>1134</ele>
        <time>2019-12-29T11:18:26+01:00</time>
      </trkpt>
      <trkpt lat="44.57206" lon="6.03776">
        <ele>1131</ele>
        <time>2021-05-09T12:40:43+02:00</time>
      </trkpt>
      <trkpt lat="44.5723" lon="6.03758">
        <ele>1131</ele>
        <time>2019-12-29T11:18:47+01:00</time>
      </trkpt>
      <trkpt lat="44.5724" lon="6.03747">
        <ele>1130</ele>
        <time>2019-12-29T11:19:05+01:00</time>
      </trkpt>
      <trkpt lat="44.57254" lon="6.03721">
        <ele>1127</ele>
        <time>2019-12-29T11:19:23+01:00</time>
      </trkpt>
      <trkpt lat="44.57273" lon="6.03712">
        <ele>1130</ele>
        <time>2019-12-29T11:19:42+01:00</time>
      </trkpt>
      <trkpt lat="44.57294" lon="6.03707">
        <ele>1135</ele>
        <time>2019-12-29T11:20:00+01:00</time>
      </trkpt>
      <trkpt lat="44.5731" lon="6.03693">
        <ele>1138</ele>
        <time>2021-05-09T12:41:13+02:00</time>
      </trkpt>
      <trkpt lat="44.57294" lon="6.03665">
        <ele>1137</ele>
        <time>2019-12-29T11:20:42+01:00</time>
      </trkpt>
      <trkpt lat="44.57281" lon="6.03639">
        <ele>1138</ele>
        <time>2019-12-29T11:21:03+01:00</time>
      </trkpt>
      <trkpt lat="44.57261" lon="6.03621">
        <ele>1138</ele>
        <time>2019-12-29T11:21:27+01:00</time>
      </trkpt>
      <trkpt lat="44.57237" lon="6.03606">
        <ele>1136</ele>
        <time>2019-12-29T11:21:57+01:00</time>
      </trkpt>
      <trkpt lat="44.57229" lon="6.03582">
        <ele>1138</ele>
        <time>2019-12-29T11:22:20+01:00</time>
      </trkpt>
      <trkpt lat="44.57223" lon="6.03545">
        <ele>1138</ele>
        <time>2019-12-29T11:22:45+01:00</time>
      </trkpt>
      <trkpt lat="44.57211" lon="6.03519">
        <ele>1143</ele>
        <time>2019-12-29T11:23:21+01:00</time>
      </trkpt>
      <trkpt lat="44.57185" lon="6.03524">
        <ele>1142</ele>
        <time>2019-12-29T11:23:42+01:00</time>
      </trkpt>
      <trkpt lat="44.57169" lon="6.03531">
        <ele>1141</ele>
        <time>2019-12-29T11:24:03+01:00</time>
      </trkpt>
      <trkpt lat="44.57145" lon="6.03557">
        <ele>1135</ele>
        <time>2019-12-29T11:24:27+01:00</time>
      </trkpt>
      <trkpt lat="44.57123" lon="6.0356">
        <ele>1137</ele>
        <time>2019-12-29T11:24:47+01:00</time>
      </trkpt>
      <trkpt lat="44.571" lon="6.03563">
        <ele>1137</ele>
        <time>2019-12-29T11:25:04+01:00</time>
      </trkpt>
      <trkpt lat="44.57077" lon="6.03559">
        <ele>1137</ele>
        <time>2019-12-29T11:25:22+01:00</time>
      </trkpt>
      <trkpt lat="44.57061" lon="6.03536">
        <ele>1138</ele>
        <time>2019-12-29T11:25:41+01:00</time>
      </trkpt>
      <trkpt lat="44.57048" lon="6.03511">
        <ele>1140</ele>
        <time>2019-12-29T11:25:59+01:00</time>
      </trkpt>
      <trkpt lat="44.57035" lon="6.03483">
        <ele>1141</ele>
        <time>2019-12-29T11:26:20+01:00</time>
      </trkpt>
      <trkpt lat="44.57022" lon="6.03456">
        <ele>1142</ele>
        <time>2019-12-29T11:26:42+01:00</time>
      </trkpt>
      <trkpt lat="44.57004" lon="6.03435">
        <ele>1142</ele>
        <time>2019-12-29T11:27:00+01:00</time>
      </trkpt>
      <trkpt lat="44.56983" lon="6.03422">
        <ele>1140</ele>
        <time>2019-12-29T11:27:27+01:00</time>
      </trkpt>
      <trkpt lat="44.56967" lon="6.03405">
        <ele>1139</ele>
        <time>2019-12-29T11:28:14+01:00</time>
      </trkpt>
      <trkpt lat="44.5695" lon="6.03376">
        <ele>1140</ele>
        <time>2019-12-29T11:28:32+01:00</time>
      </trkpt>
      <trkpt lat="44.56944" lon="6.03364">
        <ele>1141</ele>
        <time>2021-05-09T12:43:03+02:00</time>
      </trkpt>
      <trkpt lat="44.56931" lon="6.03357">
        <ele>1140</ele>
        <time>2019-12-29T11:28:55+01:00</time>
      </trkpt>
      <trkpt lat="44.5691" lon="6.03347">
        <ele>1137</ele>
        <time>2019-12-29T11:29:12+01:00</time>
      </trkpt>
      <trkpt lat="44.56889" lon="6.03327">
        <ele>1137</ele>
        <time>2019-12-29T11:29:32+01:00</time>
      </trkpt>
      <trkpt lat="44.56864" lon="6.03294">
        <ele>1137</ele>
        <time>2019-12-29T11:29:48+01:00</time>
      </trkpt>
      <trkpt lat="44.56872" lon="6.03276">
        <ele>1142</ele>
        <time>2019-12-29T11:35:14+01:00</time>
      </trkpt>
      <trkpt lat="44.56881" lon="6.03247">
        <ele>1150</ele>
        <time>2019-12-29T11:35:41+01:00</time>
      </trkpt>
      <trkpt lat="44.56889" lon="6.03222">
        <ele>1153</ele>
        <time>2019-12-29T11:36:08+01:00</time>
      </trkpt>
      <trkpt lat="44.56893" lon="6.03185">
        <ele>1165</ele>
        <time>2019-12-29T11:36:55+01:00</time>
      </trkpt>
      <trkpt lat="44.56889" lon="6.03153">
        <ele>1174</ele>
        <time>2019-12-29T11:37:39+01:00</time>
      </trkpt>
      <trkpt lat="44.56884" lon="6.03122">
        <ele>1182</ele>
        <time>2019-12-29T11:39:02+01:00</time>
      </trkpt>
      <trkpt lat="44.56876" lon="6.03091">
        <ele>1187</ele>
        <time>2019-12-29T11:39:24+01:00</time>
      </trkpt>
      <trkpt lat="44.56864" lon="6.03064">
        <ele>1189</ele>
        <time>2019-12-29T11:39:57+01:00</time>
      </trkpt>
      <trkpt lat="44.56851" lon="6.03037">
        <ele>1192</ele>
        <time>2019-12-29T11:41:16+01:00</time>
      </trkpt>
      <trkpt lat="44.5684" lon="6.0301">
        <ele>1198</ele>
        <time>2019-12-29T11:41:56+01:00</time>
      </trkpt>
      <trkpt lat="44.56829" lon="6.02982">
        <ele>1204</ele>
        <time>2019-12-29T11:43:06+01:00</time>
      </trkpt>
      <trkpt lat="44.56819" lon="6.02955">
        <ele>1211</ele>
        <time>2019-12-29T11:44:36+01:00</time>
      </trkpt>
      <trkpt lat="44.56802" lon="6.02929">
        <ele>1214</ele>
        <time>2019-12-29T11:45:03+01:00</time>
      </trkpt>
      <trkpt lat="44.56784" lon="6.0291">
        <ele>1213</ele>
        <time>2019-12-29T11:45:28+01:00</time>
      </trkpt>
      <trkpt lat="44.56771" lon="6.02884">
        <ele>1217</ele>
        <time>2019-12-29T11:45:56+01:00</time>
      </trkpt>
      <trkpt lat="44.56755" lon="6.02861">
        <ele>1218</ele>
        <time>2019-12-29T11:49:02+01:00</time>
      </trkpt>
      <trkpt lat="44.56734" lon="6.02845">
        <ele>1215</ele>
        <time>2019-12-29T11:50:07+01:00</time>
      </trkpt>
      <trkpt lat="44.56712" lon="6.02836">
        <ele>1210</ele>
        <time>2019-12-29T11:50:33+01:00</time>
      </trkpt>
      <trkpt lat="44.56697" lon="6.02813">
        <ele>1211</ele>
        <time>2019-12-29T11:51:18+01:00</time>
      </trkpt>
      <trkpt lat="44.56677" lon="6.02795">
        <ele>1211</ele>
        <time>2019-12-29T11:51:33+01:00</time>
      </trkpt>
      <trkpt lat="44.56656" lon="6.02784">
        <ele>1209</ele>
        <time>2019-12-29T11:51:50+01:00</time>
      </trkpt>
      <trkpt lat="44.56635" lon="6.02772">
        <ele>1207</ele>
        <time>2019-12-29T11:52:26+01:00</time>
      </trkpt>
      <trkpt lat="44.56615" lon="6.02759">
        <ele>1205</ele>
        <time>2019-12-29T11:52:49+01:00</time>
      </trkpt>
      <trkpt lat="44.56594" lon="6.02735">
        <ele>1206</ele>
        <time>2019-12-29T11:53:10+01:00</time>
      </trkpt>
      <trkpt lat="44.56576" lon="6.02723">
        <ele>1205</ele>
        <time>2019-12-29T11:53:36+01:00</time>
      </trkpt>
      <trkpt lat="44.56558" lon="6.02709">
        <ele>1205</ele>
        <time>2019-12-29T11:53:54+01:00</time>
      </trkpt>
      <trkpt lat="44.56538" lon="6.02693">
        <ele>1202</ele>
        <time>2019-12-29T11:54:14+01:00</time>
      </trkpt>
      <trkpt lat="44.56517" lon="6.02677">
        <ele>1200</ele>
        <time>2019-12-29T11:54:47+01:00</time>
      </trkpt>
      <trkpt lat="44.56498" lon="6.02659">
        <ele>1198</ele>
        <time>2019-12-29T11:55:08+01:00</time>
      </trkpt>
      <trkpt lat="44.56481" lon="6.02641">
        <ele>1198</ele>
        <time>2019-12-29T11:55:32+01:00</time>
      </trkpt>
      <trkpt lat="44.56472" lon="6.02618">
        <ele>1199</ele>
        <time>2019-12-29T11:56:12+01:00</time>
      </trkpt>
      <trkpt lat="44.56462" lon="6.02575">
        <ele>1203</ele>
        <time>2019-12-29T11:56:32+01:00</time>
      </trkpt>
      <trkpt lat="44.56453" lon="6.02559">
        <ele>1204</ele>
        <time>2019-12-29T11:57:00+01:00</time>
      </trkpt>
      <trkpt lat="44.56435" lon="6.02545">
        <ele>1202</ele>
        <time>2019-12-29T11:57:19+01:00</time>
      </trkpt>
      <trkpt lat="44.56413" lon="6.02528">
        <ele>1200</ele>
        <time>2019-12-29T11:57:40+01:00</time>
      </trkpt>
      <trkpt lat="44.56398" lon="6.02502">
        <ele>1200</ele>
        <time>2019-12-29T11:58:01+01:00</time>
      </trkpt>
      <trkpt lat="44.56386" lon="6.02475">
        <ele>1201</ele>
        <time>2019-12-29T11:58:21+01:00</time>
      </trkpt>
      <trkpt lat="44.56377" lon="6.02446">
        <ele>1203</ele>
        <time>2019-12-29T11:58:42+01:00</time>
      </trkpt>
      <trkpt lat="44.56365" lon="6.02418">
        <ele>1204</ele>
        <time>2019-12-29T11:59:02+01:00</time>
      </trkpt>
      <trkpt lat="44.5635" lon="6.0239">
        <ele>1205</ele>
        <time>2019-12-29T11:59:26+01:00</time>
      </trkpt>
      <trkpt lat="44.56338" lon="6.02364">
        <ele>1206</ele>
        <time>2019-12-29T12:00:14+01:00</time>
      </trkpt>
      <trkpt lat="44.56322" lon="6.02342">
        <ele>1207</ele>
        <time>2019-12-29T12:00:52+01:00</time>
      </trkpt>
      <trkpt lat="44.56307" lon="6.02315">
        <ele>1208</ele>
        <time>2019-12-29T12:01:17+01:00</time>
      </trkpt>
      <trkpt lat="44.56291" lon="6.02291">
        <ele>1208</ele>
        <time>2019-12-29T12:01:36+01:00</time>
      </trkpt>
      <trkpt lat="44.56279" lon="6.02264">
        <ele>1209</ele>
        <time>2019-12-29T12:01:55+01:00</time>
      </trkpt>
      <trkpt lat="44.56267" lon="6.02235">
        <ele>1209</ele>
        <time>2019-12-29T12:34:24+01:00</time>
      </trkpt>
      <trkpt lat="44.5625" lon="6.02206">
        <ele>1208</ele>
        <time>2019-12-29T12:34:44+01:00</time>
      </trkpt>
      <trkpt lat="44.56234" lon="6.0218">
        <ele>1207</ele>
        <time>2019-12-29T12:35:06+01:00</time>
      </trkpt>
      <trkpt lat="44.56223" lon="6.02164">
        <ele>1205</ele>
        <time>2019-12-29T12:35:25+01:00</time>
      </trkpt>
      <trkpt lat="44.56218" lon="6.02122">
        <ele>1205</ele>
        <time>2019-12-29T12:35:49+01:00</time>
      </trkpt>
      <trkpt lat="44.56211" lon="6.02089">
        <ele>1202</ele>
        <time>2019-12-29T12:36:11+01:00</time>
      </trkpt>
      <trkpt lat="44.56206" lon="6.02057">
        <ele>1199</ele>
        <time>2019-12-29T12:36:34+01:00</time>
      </trkpt>
      <trkpt lat="44.562" lon="6.02026">
        <ele>1195</ele>
        <time>2019-12-29T12:36:53+01:00</time>
      </trkpt>
      <trkpt lat="44.56193" lon="6.02001">
        <ele>1192</ele>
        <time>2019-12-29T12:37:15+01:00</time>
      </trkpt>
      <trkpt lat="44.56182" lon="6.0197">
        <ele>1190</ele>
        <time>2019-12-29T12:37:35+01:00</time>
      </trkpt>
      <trkpt lat="44.56171" lon="6.0194">
        <ele>1187</ele>
        <time>2019-12-29T12:37:57+01:00</time>
      </trkpt>
      <trkpt lat="44.56159" lon="6.01914">
        <ele>1184</ele>
        <time>2019-12-29T12:38:17+01:00</time>
      </trkpt>
      <trkpt lat="44.56146" lon="6.01886">
        <ele>1180</ele>
        <time>2019-12-29T12:38:39+01:00</time>
      </trkpt>
      <trkpt lat="44.5613" lon="6.01862">
        <ele>1175</ele>
        <time>2019-12-29T12:39:02+01:00</time>
      </trkpt>
      <trkpt lat="44.56122" lon="6.01829">
        <ele>1173</ele>
        <time>2019-12-29T12:39:26+01:00</time>
      </trkpt>
      <trkpt lat="44.56112" lon="6.01797">
        <ele>1170</ele>
        <time>2019-12-29T12:39:49+01:00</time>
      </trkpt>
      <trkpt lat="44.56108" lon="6.01775">
        <ele>1169</ele>
        <time>2019-12-29T12:41:34+01:00</time>
      </trkpt>
      <trkpt lat="44.56093" lon="6.01744">
        <ele>1166</ele>
        <time>2019-12-29T12:42:28+01:00</time>
      </trkpt>
      <trkpt lat="44.56085" lon="6.01716">
        <ele>1164</ele>
        <time>2019-12-29T12:42:59+01:00</time>
      </trkpt>
      <trkpt lat="44.56081" lon="6.0168">
        <ele>1163</ele>
        <time>2019-12-29T12:43:18+01:00</time>
      </trkpt>
      <trkpt lat="44.56076" lon="6.01647">
        <ele>1162</ele>
        <time>2019-12-29T12:43:35+01:00</time>
      </trkpt>
      <trkpt lat="44.56071" lon="6.01616">
        <ele>1160</ele>
        <time>2019-12-29T12:43:53+01:00</time>
      </trkpt>
      <trkpt lat="44.56068" lon="6.01583">
        <ele>1160</ele>
        <time>2019-12-29T12:44:12+01:00</time>
      </trkpt>
      <trkpt lat="44.56066" lon="6.01553">
        <ele>1159</ele>
        <time>2019-12-29T12:44:35+01:00</time>
      </trkpt>
      <trkpt lat="44.56065" lon="6.01517">
        <ele>1160</ele>
        <time>2019-12-29T12:44:54+01:00</time>
      </trkpt>
      <trkpt lat="44.56064" lon="6.01489">
        <ele>1160</ele>
        <time>2019-12-29T12:45:14+01:00</time>
      </trkpt>
      <trkpt lat="44.56061" lon="6.01466">
        <ele>1159</ele>
        <time>2021-05-09T12:49:23+02:00</time>
      </trkpt>
      <trkpt lat="44.56055" lon="6.01457">
        <ele>1158</ele>
        <time>2019-12-29T12:45:38+01:00</time>
      </trkpt>
      <trkpt lat="44.5605" lon="6.01421">
        <ele>1158</ele>
        <time>2019-12-29T12:45:56+01:00</time>
      </trkpt>
      <trkpt lat="44.56051" lon="6.01381">
        <ele>1159</ele>
        <time>2019-12-29T12:46:18+01:00</time>
      </trkpt>
      <trkpt lat="44.56047" lon="6.0137">
        <ele>1159</ele>
        <time>2019-12-29T12:46:42+01:00</time>
      </trkpt>
      <trkpt lat="44.56053" lon="6.01335">
        <ele>1161</ele>
        <time>2019-12-29T12:47:00+01:00</time>
      </trkpt>
      <trkpt lat="44.56055" lon="6.01304">
        <ele>1162</ele>
        <time>2019-12-29T12:47:18+01:00</time>
      </trkpt>
      <trkpt lat="44.56059" lon="6.01273">
        <ele>1165</ele>
        <time>2019-12-29T12:47:38+01:00</time>
      </trkpt>
      <trkpt lat="44.56059" lon="6.01241">
        <ele>1167</ele>
        <time>2019-12-29T12:47:58+01:00</time>
      </trkpt>
      <trkpt lat="44.56057" lon="6.01203">
        <ele>1167</ele>
        <time>2019-12-29T12:48:17+01:00</time>
      </trkpt>
      <trkpt lat="44.56052" lon="6.01221">
        <ele>1165</ele>
        <time>2021-05-09T12:50:13+02:00</time>
      </trkpt>
      <trkpt lat="44.56039" lon="6.0123">
        <ele>1162</ele>
        <time>2019-12-29T12:49:52+01:00</time>
      </trkpt>
      <trkpt lat="44.56015" lon="6.01245">
        <ele>1158</ele>
        <time>2019-12-29T12:50:12+01:00</time>
      </trkpt>
      <trkpt lat="44.55997" lon="6.0126">
        <ele>1155</ele>
        <time>2019-12-29T12:50:29+01:00</time>
      </trkpt>
      <trkpt lat="44.55982" lon="6.01272">
        <ele>1152</ele>
        <time>2019-12-29T12:50:53+01:00</time>
      </trkpt>
      <trkpt lat="44.55958" lon="6.01282">
        <ele>1149</ele>
        <time>2019-12-29T12:51:15+01:00</time>
      </trkpt>
      <trkpt lat="44.55937" lon="6.01297">
        <ele>1143</ele>
        <time>2019-12-29T12:51:37+01:00</time>
      </trkpt>
      <trkpt lat="44.55916" lon="6.01314">
        <ele>1137</ele>
        <time>2019-12-29T12:51:56+01:00</time>
      </trkpt>
      <trkpt lat="44.55901" lon="6.01334">
        <ele>1134</ele>
        <time>2021-05-09T12:50:53+02:00</time>
      </trkpt>
      <trkpt lat="44.55913" lon="6.01354">
        <ele>1134</ele>
        <time>2019-12-29T12:53:21+01:00</time>
      </trkpt>
      <trkpt lat="44.55929" lon="6.01367">
        <ele>1136</ele>
        <time>2019-12-29T12:53:40+01:00</time>
      </trkpt>
      <trkpt lat="44.55936" lon="6.01395">
        <ele>1136</ele>
        <time>2019-12-29T12:54:12+01:00</time>
      </trkpt>
      <trkpt lat="44.55945" lon="6.01431">
        <ele>1136</ele>
        <time>2019-12-29T12:54:30+01:00</time>
      </trkpt>
      <trkpt lat="44.55952" lon="6.01459">
        <ele>1136</ele>
        <time>2019-12-29T12:54:47+01:00</time>
      </trkpt>
      <trkpt lat="44.5596" lon="6.01488">
        <ele>1136</ele>
        <time>2019-12-29T12:55:06+01:00</time>
      </trkpt>
      <trkpt lat="44.55964" lon="6.0152">
        <ele>1136</ele>
        <time>2019-12-29T12:55:23+01:00</time>
      </trkpt>
      <trkpt lat="44.55969" lon="6.01549">
        <ele>1136</ele>
        <time>2019-12-29T12:55:40+01:00</time>
      </trkpt>
      <trkpt lat="44.55971" lon="6.01581">
        <ele>1136</ele>
        <time>2019-12-29T12:55:59+01:00</time>
      </trkpt>
      <trkpt lat="44.55975" lon="6.01614">
        <ele>1137</ele>
        <time>2019-12-29T12:56:18+01:00</time>
      </trkpt>
      <trkpt lat="44.55977" lon="6.01643">
        <ele>1137</ele>
        <time>2019-12-29T12:56:36+01:00</time>
      </trkpt>
      <trkpt lat="44.55976" lon="6.01675">
        <ele>1137</ele>
        <time>2019-12-29T12:56:53+01:00</time>
      </trkpt>
      <trkpt lat="44.55974" lon="6.01707">
        <ele>1136</ele>
        <time>2019-12-29T12:57:13+01:00</time>
      </trkpt>
      <trkpt lat="44.55972" lon="6.01741">
        <ele>1135</ele>
        <time>2019-12-29T12:57:31+01:00</time>
      </trkpt>
      <trkpt lat="44.55974" lon="6.01771">
        <ele>1135</ele>
        <time>2019-12-29T12:57:49+01:00</time>
      </trkpt>
      <trkpt lat="44.55987" lon="6.01796">
        <ele>1138</ele>
        <time>2019-12-29T12:58:19+01:00</time>
      </trkpt>
      <trkpt lat="44.55984" lon="6.01834">
        <ele>1137</ele>
        <time>2019-12-29T12:58:39+01:00</time>
      </trkpt>
      <trkpt lat="44.55985" lon="6.01859">
        <ele>1136</ele>
        <time>2019-12-29T12:58:59+01:00</time>
      </trkpt>
      <trkpt lat="44.55989" lon="6.01893">
        <ele>1135</ele>
        <time>2019-12-29T12:59:18+01:00</time>
      </trkpt>
      <trkpt lat="44.55993" lon="6.01925">
        <ele>1134</ele>
        <time>2019-12-29T12:59:51+01:00</time>
      </trkpt>
      <trkpt lat="44.55998" lon="6.01958">
        <ele>1134</ele>
        <time>2019-12-29T13:00:10+01:00</time>
      </trkpt>
      <trkpt lat="44.56002" lon="6.01987">
        <ele>1136</ele>
        <time>2019-12-29T13:00:29+01:00</time>
      </trkpt>
      <trkpt lat="44.56005" lon="6.02018">
        <ele>1137</ele>
        <time>2019-12-29T13:00:46+01:00</time>
      </trkpt>
      <trkpt lat="44.56008" lon="6.0205">
        <ele>1136</ele>
        <time>2019-12-29T13:01:03+01:00</time>
      </trkpt>
      <trkpt lat="44.56014" lon="6.02082">
        <ele>1136</ele>
        <time>2019-12-29T13:01:21+01:00</time>
      </trkpt>
      <trkpt lat="44.56019" lon="6.02111">
        <ele>1135</ele>
        <time>2019-12-29T13:01:50+01:00</time>
      </trkpt>
      <trkpt lat="44.56026" lon="6.02141">
        <ele>1135</ele>
        <time>2019-12-29T13:02:07+01:00</time>
      </trkpt>
      <trkpt lat="44.56036" lon="6.02169">
        <ele>1136</ele>
        <time>2019-12-29T13:02:23+01:00</time>
      </trkpt>
      <trkpt lat="44.56046" lon="6.02199">
        <ele>1136</ele>
        <time>2019-12-29T13:02:40+01:00</time>
      </trkpt>
      <trkpt lat="44.56057" lon="6.02229">
        <ele>1137</ele>
        <time>2019-12-29T13:02:59+01:00</time>
      </trkpt>
      <trkpt lat="44.56068" lon="6.02256">
        <ele>1137</ele>
        <time>2019-12-29T13:03:18+01:00</time>
      </trkpt>
      <trkpt lat="44.5608" lon="6.02284">
        <ele>1137</ele>
        <time>2019-12-29T13:03:36+01:00</time>
      </trkpt>
      <trkpt lat="44.56091" lon="6.02311">
        <ele>1137</ele>
        <time>2019-12-29T13:03:52+01:00</time>
      </trkpt>
      <trkpt lat="44.56102" lon="6.02341">
        <ele>1136</ele>
        <time>2019-12-29T13:04:11+01:00</time>
      </trkpt>
      <trkpt lat="44.56113" lon="6.0237">
        <ele>1135</ele>
        <time>2019-12-29T13:04:40+01:00</time>
      </trkpt>
      <trkpt lat="44.56125" lon="6.02397">
        <ele>1136</ele>
        <time>2019-12-29T13:04:57+01:00</time>
      </trkpt>
      <trkpt lat="44.56141" lon="6.02421">
        <ele>1138</ele>
        <time>2019-12-29T13:05:14+01:00</time>
      </trkpt>
      <trkpt lat="44.56153" lon="6.02447">
        <ele>1136</ele>
        <time>2019-12-29T13:05:34+01:00</time>
      </trkpt>
      <trkpt lat="44.56167" lon="6.02478">
        <ele>1136</ele>
        <time>2019-12-29T13:05:52+01:00</time>
      </trkpt>
      <trkpt lat="44.56178" lon="6.02508">
        <ele>1136</ele>
        <time>2019-12-29T13:06:09+01:00</time>
      </trkpt>
      <trkpt lat="44.56187" lon="6.02532">
        <ele>1136</ele>
        <time>2019-12-29T13:06:28+01:00</time>
      </trkpt>
      <trkpt lat="44.56203" lon="6.02557">
        <ele>1138</ele>
        <time>2019-12-29T13:06:47+01:00</time>
      </trkpt>
      <trkpt lat="44.56217" lon="6.02582">
        <ele>1136</ele>
        <time>2019-12-29T13:07:02+01:00</time>
      </trkpt>
      <trkpt lat="44.56238" lon="6.02617">
        <ele>1131</ele>
        <time>2019-12-29T13:07:19+01:00</time>
      </trkpt>
      <trkpt lat="44.56255" lon="6.0262">
        <ele>1132</ele>
        <time>2019-12-29T13:07:43+01:00</time>
      </trkpt>
      <trkpt lat="44.56274" lon="6.02614">
        <ele>1136</ele>
        <time>2019-12-29T13:08:09+01:00</time>
      </trkpt>
      <trkpt lat="44.56293" lon="6.02618">
        <ele>1139</ele>
        <time>2019-12-29T13:08:23+01:00</time>
      </trkpt>
      <trkpt lat="44.56304" lon="6.02635">
        <ele>1139</ele>
        <time>2019-12-29T13:08:40+01:00</time>
      </trkpt>
      <trkpt lat="44.56313" lon="6.02668">
        <ele>1137</ele>
        <time>2019-12-29T13:08:57+01:00</time>
      </trkpt>
      <trkpt lat="44.56322" lon="6.02707">
        <ele>1134</ele>
        <time>2019-12-29T13:09:16+01:00</time>
      </trkpt>
      <trkpt lat="44.56339" lon="6.02735">
        <ele>1133</ele>
        <time>2019-12-29T13:09:39+01:00</time>
      </trkpt>
      <trkpt lat="44.5636" lon="6.02758">
        <ele>1135</ele>
        <time>2019-12-29T13:09:57+01:00</time>
      </trkpt>
      <trkpt lat="44.56381" lon="6.02784">
        <ele>1134</ele>
        <time>2019-12-29T13:10:14+01:00</time>
      </trkpt>
      <trkpt lat="44.56395" lon="6.0279">
        <ele>1137</ele>
        <time>2019-12-29T13:10:35+01:00</time>
      </trkpt>
      <trkpt lat="44.56407" lon="6.02811">
        <ele>1135</ele>
        <time>2019-12-29T13:11:00+01:00</time>
      </trkpt>
      <trkpt lat="44.56428" lon="6.02838">
        <ele>1136</ele>
        <time>2019-12-29T13:11:18+01:00</time>
      </trkpt>
      <trkpt lat="44.56448" lon="6.02857">
        <ele>1139</ele>
        <time>2019-12-29T13:11:35+01:00</time>
      </trkpt>
      <trkpt lat="44.56467" lon="6.02877">
        <ele>1138</ele>
        <time>2019-12-29T13:11:51+01:00</time>
      </trkpt>
      <trkpt lat="44.56483" lon="6.0289">
        <ele>1138</ele>
        <time>2019-12-29T13:12:13+01:00</time>
      </trkpt>
      <trkpt lat="44.56513" lon="6.02905">
        <ele>1138</ele>
        <time>2019-12-29T13:12:34+01:00</time>
      </trkpt>
      <trkpt lat="44.56526" lon="6.02916">
        <ele>1137</ele>
        <time>2019-12-29T13:12:58+01:00</time>
      </trkpt>
      <trkpt lat="44.5655" lon="6.02921">
        <ele>1139</ele>
        <time>2019-12-29T13:13:18+01:00</time>
      </trkpt>
      <trkpt lat="44.56558" lon="6.02941">
        <ele>1136</ele>
        <time>2019-12-29T13:13:36+01:00</time>
      </trkpt>
      <trkpt lat="44.5658" lon="6.02964">
        <ele>1136</ele>
        <time>2019-12-29T13:13:56+01:00</time>
      </trkpt>
      <trkpt lat="44.56606" lon="6.02985">
        <ele>1136</ele>
        <time>2019-12-29T13:14:18+01:00</time>
      </trkpt>
      <trkpt lat="44.56625" lon="6.03007">
        <ele>1132</ele>
        <time>2019-12-29T13:14:39+01:00</time>
      </trkpt>
      <trkpt lat="44.56646" lon="6.03003">
        <ele>1137</ele>
        <time>2021-05-09T12:56:28+02:00</time>
      </trkpt>
      <trkpt lat="44.56652" lon="6.03028">
        <ele>1131</ele>
        <time>2019-12-29T13:15:49+01:00</time>
      </trkpt>
      <trkpt lat="44.56661" lon="6.03035">
        <ele>1132</ele>
        <time>2019-12-29T13:16:09+01:00</time>
      </trkpt>
      <trkpt lat="44.56685" lon="6.03038">
        <ele>1138</ele>
        <time>2019-12-29T13:16:25+01:00</time>
      </trkpt>
      <trkpt lat="44.56704" lon="6.03057">
        <ele>1138</ele>
        <time>2019-12-29T13:16:45+01:00</time>
      </trkpt>
      <trkpt lat="44.56721" lon="6.03079">
        <ele>1138</ele>
        <time>2019-12-29T13:17:03+01:00</time>
      </trkpt>
      <trkpt lat="44.56735" lon="6.03104">
        <ele>1135</ele>
        <time>2019-12-29T13:17:20+01:00</time>
      </trkpt>
      <trkpt lat="44.56754" lon="6.03124">
        <ele>1134</ele>
        <time>2019-12-29T13:17:38+01:00</time>
      </trkpt>
      <trkpt lat="44.5678" lon="6.03142">
        <ele>1137</ele>
        <time>2019-12-29T13:17:57+01:00</time>
      </trkpt>
      <trkpt lat="44.56796" lon="6.03159">
        <ele>1136</ele>
        <time>2019-12-29T13:18:14+01:00</time>
      </trkpt>
      <trkpt lat="44.56813" lon="6.03178">
        <ele>1136</ele>
        <time>2019-12-29T13:18:35+01:00</time>
      </trkpt>
      <trkpt lat="44.56826" lon="6.03195">
        <ele>1136</ele>
        <time>2019-12-29T13:18:51+01:00</time>
      </trkpt>
      <trkpt lat="44.56837" lon="6.03211">
        <ele>1137</ele>
        <time>2019-12-29T13:19:08+01:00</time>
      </trkpt>
      <trkpt lat="44.56842" lon="6.03239">
        <ele>1136</ele>
        <time>2019-12-29T13:19:25+01:00</time>
      </trkpt>
      <trkpt lat="44.56852" lon="6.03273">
        <ele>1136</ele>
        <time>2019-12-29T13:19:43+01:00</time>
      </trkpt>
      <trkpt lat="44.56864" lon="6.03295">
        <ele>1137</ele>
        <time>2019-12-29T13:20:04+01:00</time>
      </trkpt>
      <trkpt lat="44.5689" lon="6.03328">
        <ele>1137</ele>
        <time>2019-12-29T13:20:57+01:00</time>
      </trkpt>
      <trkpt lat="44.5691" lon="6.03344">
        <ele>1138</ele>
        <time>2019-12-29T13:21:14+01:00</time>
      </trkpt>
      <trkpt lat="44.56932" lon="6.03355">
        <ele>1140</ele>
        <time>2019-12-29T13:21:30+01:00</time>
      </trkpt>
      <trkpt lat="44.56943" lon="6.03364">
        <ele>1141</ele>
        <time>2021-05-09T12:58:03+02:00</time>
      </trkpt>
      <trkpt lat="44.56951" lon="6.03376">
        <ele>1141</ele>
        <time>2019-12-29T13:21:49+01:00</time>
      </trkpt>
      <trkpt lat="44.56967" lon="6.03405">
        <ele>1139</ele>
        <time>2019-12-29T13:22:05+01:00</time>
      </trkpt>
      <trkpt lat="44.56983" lon="6.0342">
        <ele>1140</ele>
        <time>2019-12-29T13:22:22+01:00</time>
      </trkpt>
      <trkpt lat="44.57005" lon="6.03435">
        <ele>1143</ele>
        <time>2019-12-29T13:22:42+01:00</time>
      </trkpt>
      <trkpt lat="44.57023" lon="6.03457">
        <ele>1142</ele>
        <time>2019-12-29T13:23:00+01:00</time>
      </trkpt>
      <trkpt lat="44.57035" lon="6.03483">
        <ele>1141</ele>
        <time>2019-12-29T13:23:20+01:00</time>
      </trkpt>
      <trkpt lat="44.57048" lon="6.03508">
        <ele>1140</ele>
        <time>2019-12-29T13:23:37+01:00</time>
      </trkpt>
      <trkpt lat="44.57061" lon="6.03536">
        <ele>1139</ele>
        <time>2019-12-29T13:23:56+01:00</time>
      </trkpt>
      <trkpt lat="44.57077" lon="6.0356">
        <ele>1136</ele>
        <time>2019-12-29T13:24:13+01:00</time>
      </trkpt>
      <trkpt lat="44.57101" lon="6.03564">
        <ele>1136</ele>
        <time>2019-12-29T13:24:31+01:00</time>
      </trkpt>
      <trkpt lat="44.57124" lon="6.03559">
        <ele>1137</ele>
        <time>2019-12-29T13:24:50+01:00</time>
      </trkpt>
      <trkpt lat="44.57146" lon="6.03557">
        <ele>1135</ele>
        <time>2019-12-29T13:25:11+01:00</time>
      </trkpt>
      <trkpt lat="44.57169" lon="6.03531">
        <ele>1141</ele>
        <time>2019-12-29T13:25:32+01:00</time>
      </trkpt>
      <trkpt lat="44.57185" lon="6.03523">
        <ele>1143</ele>
        <time>2019-12-29T13:25:54+01:00</time>
      </trkpt>
      <trkpt lat="44.57209" lon="6.03518">
        <ele>1143</ele>
        <time>2019-12-29T13:26:12+01:00</time>
      </trkpt>
      <trkpt lat="44.57223" lon="6.03544">
        <ele>1138</ele>
        <time>2019-12-29T13:26:31+01:00</time>
      </trkpt>
      <trkpt lat="44.57229" lon="6.0358">
        <ele>1138</ele>
        <time>2019-12-29T13:26:54+01:00</time>
      </trkpt>
      <trkpt lat="44.57237" lon="6.03605">
        <ele>1136</ele>
        <time>2019-12-29T13:27:15+01:00</time>
      </trkpt>
      <trkpt lat="44.57258" lon="6.03618">
        <ele>1138</ele>
        <time>2019-12-29T13:27:35+01:00</time>
      </trkpt>
      <trkpt lat="44.57281" lon="6.03639">
        <ele>1138</ele>
        <time>2019-12-29T13:27:55+01:00</time>
      </trkpt>
      <trkpt lat="44.57291" lon="6.03658">
        <ele>1137</ele>
        <time>2019-12-29T13:28:13+01:00</time>
      </trkpt>
      <trkpt lat="44.57307" lon="6.03681">
        <ele>1138</ele>
        <time>2019-12-29T13:28:33+01:00</time>
      </trkpt>
      <trkpt lat="44.57309" lon="6.03692">
        <ele>1138</ele>
        <time>2021-05-09T12:59:58+02:00</time>
      </trkpt>
      <trkpt lat="44.57294" lon="6.03708">
        <ele>1135</ele>
        <time>2019-12-29T13:28:57+01:00</time>
      </trkpt>
      <trkpt lat="44.57271" lon="6.03713">
        <ele>1130</ele>
        <time>2019-12-29T13:29:17+01:00</time>
      </trkpt>
      <trkpt lat="44.5725" lon="6.03727">
        <ele>1128</ele>
        <time>2019-12-29T13:29:34+01:00</time>
      </trkpt>
      <trkpt lat="44.5723" lon="6.03759">
        <ele>1131</ele>
        <time>2019-12-29T13:30:12+01:00</time>
      </trkpt>
      <trkpt lat="44.57207" lon="6.03776">
        <ele>1131</ele>
        <time>2021-05-09T13:00:23+02:00</time>
      </trkpt>
      <trkpt lat="44.57206" lon="6.03797">
        <ele>1133</ele>
        <time>2019-12-29T13:30:33+01:00</time>
      </trkpt>
      <trkpt lat="44.57216" lon="6.03817">
        <ele>1135</ele>
        <time>2019-12-29T13:30:51+01:00</time>
      </trkpt>
      <trkpt lat="44.57236" lon="6.03836">
        <ele>1136</ele>
        <time>2019-12-29T13:31:08+01:00</time>
      </trkpt>
      <trkpt lat="44.57257" lon="6.03852">
        <ele>1138</ele>
        <time>2019-12-29T13:31:32+01:00</time>
      </trkpt>
      <trkpt lat="44.57276" lon="6.03872">
        <ele>1138</ele>
        <time>2019-12-29T13:31:55+01:00</time>
      </trkpt>
      <trkpt lat="44.57294" lon="6.03892">
        <ele>1138</ele>
        <time>2019-12-29T13:32:13+01:00</time>
      </trkpt>
      <trkpt lat="44.5731" lon="6.03916">
        <ele>1138</ele>
        <time>2019-12-29T13:32:31+01:00</time>
      </trkpt>
      <trkpt lat="44.57327" lon="6.03936">
        <ele>1139</ele>
        <time>2019-12-29T13:32:51+01:00</time>
      </trkpt>
      <trkpt lat="44.57347" lon="6.03955">
        <ele>1141</ele>
        <time>2019-12-29T13:33:11+01:00</time>
      </trkpt>
      <trkpt lat="44.5736" lon="6.03981">
        <ele>1141</ele>
        <time>2019-12-29T13:33:29+01:00</time>
      </trkpt>
      <trkpt lat="44.57371" lon="6.0401">
        <ele>1140</ele>
        <time>2019-12-29T13:33:46+01:00</time>
      </trkpt>
      <trkpt lat="44.5738" lon="6.04039">
        <ele>1139</ele>
        <time>2019-12-29T13:34:09+01:00</time>
      </trkpt>
      <trkpt lat="44.57395" lon="6.04063">
        <ele>1139</ele>
        <time>2019-12-29T13:34:25+01:00</time>
      </trkpt>
      <trkpt lat="44.57406" lon="6.04094">
        <ele>1139</ele>
        <time>2019-12-29T13:34:40+01:00</time>
      </trkpt>
      <trkpt lat="44.57419" lon="6.04117">
        <ele>1140</ele>
        <time>2019-12-29T13:35:00+01:00</time>
      </trkpt>
      <trkpt lat="44.57429" lon="6.04145">
        <ele>1141</ele>
        <time>2019-12-29T13:35:18+01:00</time>
      </trkpt>
      <trkpt lat="44.5744" lon="6.04175">
        <ele>1141</ele>
        <time>2019-12-29T13:35:37+01:00</time>
      </trkpt>
      <trkpt lat="44.57455" lon="6.04199">
        <ele>1142</ele>
        <time>2019-12-29T13:35:55+01:00</time>
      </trkpt>
      <trkpt lat="44.5747" lon="6.04219">
        <ele>1145</ele>
        <time>2019-12-29T13:36:11+01:00</time>
      </trkpt>
      <trkpt lat="44.57482" lon="6.04239">
        <ele>1145</ele>
        <time>2019-12-29T13:36:29+01:00</time>
      </trkpt>
      <trkpt lat="44.57495" lon="6.04264">
        <ele>1145</ele>
        <time>2019-12-29T13:36:47+01:00</time>
      </trkpt>
      <trkpt lat="44.57504" lon="6.04285">
        <ele>1146</ele>
        <time>2019-12-29T13:37:04+01:00</time>
      </trkpt>
      <trkpt lat="44.57516" lon="6.04331">
        <ele>1146</ele>
        <time>2019-12-29T13:37:22+01:00</time>
      </trkpt>
      <trkpt lat="44.57521" lon="6.04361">
        <ele>1144</ele>
        <time>2019-12-29T13:37:41+01:00</time>
      </trkpt>
      <trkpt lat="44.5753" lon="6.04391">
        <ele>1143</ele>
        <time>2019-12-29T13:37:57+01:00</time>
      </trkpt>
      <trkpt lat="44.57548" lon="6.04421">
        <ele>1143</ele>
        <time>2019-12-29T13:38:15+01:00</time>
      </trkpt>
      <trkpt lat="44.57562" lon="6.04446">
        <ele>1142</ele>
        <time>2019-12-29T13:38:49+01:00</time>
      </trkpt>
      <trkpt lat="44.57577" lon="6.04469">
        <ele>1142</ele>
        <time>2019-12-29T13:39:05+01:00</time>
      </trkpt>
      <trkpt lat="44.57592" lon="6.04495">
        <ele>1143</ele>
        <time>2019-12-29T13:39:22+01:00</time>
      </trkpt>
      <trkpt lat="44.57611" lon="6.04533">
        <ele>1141</ele>
        <time>2019-12-29T13:39:40+01:00</time>
      </trkpt>
      <trkpt lat="44.57612" lon="6.04545">
        <ele>1140</ele>
        <time>2019-12-29T13:42:09+01:00</time>
      </trkpt>
      <trkpt lat="44.57625" lon="6.0457">
        <ele>1138</ele>
        <time>2019-12-29T13:42:32+01:00</time>
      </trkpt>
      <trkpt lat="44.57635" lon="6.04583">
        <ele>1138</ele>
        <time>2021-05-09T13:03:08+02:00</time>
      </trkpt>
      <trkpt lat="44.5765" lon="6.04594">
        <ele>1138</ele>
        <time>2019-12-29T13:43:00+01:00</time>
      </trkpt>
      <trkpt lat="44.57667" lon="6.04613">
        <ele>1137</ele>
        <time>2019-12-29T13:43:18+01:00</time>
      </trkpt>
      <trkpt lat="44.57674" lon="6.04634">
        <ele>1134</ele>
        <time>2019-12-29T13:43:39+01:00</time>
      </trkpt>
      <trkpt lat="44.57675" lon="6.04665">
        <ele>1131</ele>
        <time>2019-12-29T13:44:00+01:00</time>
      </trkpt>
      <trkpt lat="44.5768" lon="6.04683">
        <ele>1130</ele>
        <time>2019-12-29T13:44:19+01:00</time>
      </trkpt>
      <trkpt lat="44.57703" lon="6.0471">
        <ele>1129</ele>
        <time>2019-12-29T13:44:58+01:00</time>
      </trkpt>
      <trkpt lat="44.57724" lon="6.04725">
        <ele>1128</ele>
        <time>2019-12-29T13:45:17+01:00</time>
      </trkpt>
      <trkpt lat="44.57748" lon="6.04741">
        <ele>1126</ele>
        <time>2019-12-29T13:45:37+01:00</time>
      </trkpt>
      <trkpt lat="44.5776" lon="6.04755">
        <ele>1124</ele>
        <time>2019-12-29T13:46:18+01:00</time>
      </trkpt>
      <trkpt lat="44.57766" lon="6.04776">
        <ele>1122</ele>
        <time>2021-05-09T13:03:58+02:00</time>
      </trkpt>
      <trkpt lat="44.57781" lon="6.04799">
        <ele>1121</ele>
        <time>2019-12-29T13:46:33+01:00</time>
      </trkpt>
      <trkpt lat="44.57793" lon="6.04818">
        <ele>1119</ele>
        <time>2019-12-29T13:46:54+01:00</time>
      </trkpt>
      <trkpt lat="44.57807" lon="6.0484">
        <ele>1116</ele>
        <time>2019-12-29T13:47:20+01:00</time>
      </trkpt>
      <trkpt lat="44.5782" lon="6.04863">
        <ele>1112</ele>
        <time>2019-12-29T13:47:39+01:00</time>
      </trkpt>
      <trkpt lat="44.57834" lon="6.04886">
        <ele>1110</ele>
        <time>2019-12-29T13:47:59+01:00</time>
      </trkpt>
      <trkpt lat="44.57838" lon="6.04907">
        <ele>1107</ele>
        <time>2019-12-29T13:48:18+01:00</time>
      </trkpt>
      <trkpt lat="44.57838" lon="6.04931">
        <ele>1105</ele>
        <time>2019-12-29T13:48:35+01:00</time>
      </trkpt>
      <trkpt lat="44.57829" lon="6.04952">
        <ele>1102</ele>
        <time>2021-05-09T13:04:38+02:00</time>
      </trkpt>
      <trkpt lat="44.57816" lon="6.04955">
        <ele>1100</ele>
        <time>2019-12-29T13:48:52+01:00</time>
      </trkpt>
      <trkpt lat="44.57798" lon="6.04937">
        <ele>1101</ele>
        <time>2019-12-29T13:49:13+01:00</time>
      </trkpt>
      <trkpt lat="44.57776" lon="6.04923">
        <ele>1100</ele>
        <time>2019-12-29T13:49:32+01:00</time>
      </trkpt>
      <trkpt lat="44.57788" lon="6.04962">
        <ele>1095</ele>
        <time>2019-12-29T13:49:55+01:00</time>
      </trkpt>
      <trkpt lat="44.57803" lon="6.04988">
        <ele>1093</ele>
        <time>2019-12-29T13:50:28+01:00</time>
      </trkpt>
      <trkpt lat="44.57815" lon="6.05014">
        <ele>1091</ele>
        <time>2019-12-29T13:50:49+01:00</time>
      </trkpt>
      <trkpt lat="44.5783" lon="6.05039">
        <ele>1089</ele>
        <time>2019-12-29T13:51:15+01:00</time>
      </trkpt>
      <trkpt lat="44.57844" lon="6.05064">
        <ele>1087</ele>
        <time>2019-12-29T13:52:08+01:00</time>
      </trkpt>
      <trkpt lat="44.57854" lon="6.05093">
        <ele>1085</ele>
        <time>2019-12-29T13:52:39+01:00</time>
      </trkpt>
      <trkpt lat="44.57848" lon="6.05127">
        <ele>1080</ele>
        <time>2019-12-29T13:53:16+01:00</time>
      </trkpt>
      <trkpt lat="44.57832" lon="6.05148">
        <ele>1077</ele>
        <time>2019-12-29T13:53:32+01:00</time>
      </trkpt>
      <trkpt lat="44.5781" lon="6.05163">
        <ele>1075</ele>
        <time>2019-12-29T13:53:49+01:00</time>
      </trkpt>
      <trkpt lat="44.57795" lon="6.0516">
        <ele>1074</ele>
        <time>2019-12-29T13:54:23+01:00</time>
      </trkpt>
      <trkpt lat="44.57775" lon="6.05145">
        <ele>1073</ele>
        <time>2019-12-29T13:54:38+01:00</time>
      </trkpt>
      <trkpt lat="44.57753" lon="6.05133">
        <ele>1072</ele>
        <time>2019-12-29T13:54:58+01:00</time>
      </trkpt>
      <trkpt lat="44.57732" lon="6.05121">
        <ele>1071</ele>
        <time>2019-12-29T13:55:17+01:00</time>
      </trkpt>
      <trkpt lat="44.57714" lon="6.05104">
        <ele>1070</ele>
        <time>2019-12-29T13:55:38+01:00</time>
      </trkpt>
      <trkpt lat="44.57695" lon="6.05082">
        <ele>1070</ele>
        <time>2019-12-29T13:55:56+01:00</time>
      </trkpt>
      <trkpt lat="44.57675" lon="6.05067">
        <ele>1068</ele>
        <time>2019-12-29T13:56:15+01:00</time>
      </trkpt>
      <trkpt lat="44.57691" lon="6.051">
        <ele>1067</ele>
        <time>2019-12-29T13:56:47+01:00</time>
      </trkpt>
      <trkpt lat="44.57708" lon="6.05125">
        <ele>1066</ele>
        <time>2019-12-29T13:57:05+01:00</time>
      </trkpt>
      <trkpt lat="44.57731" lon="6.05152">
        <ele>1067</ele>
        <time>2019-12-29T13:57:30+01:00</time>
      </trkpt>
      <trkpt lat="44.57737" lon="6.05168">
        <ele>1065</ele>
        <time>2019-12-29T13:57:46+01:00</time>
      </trkpt>
      <trkpt lat="44.5775" lon="6.05194">
        <ele>1062</ele>
        <time>2019-12-29T13:58:05+01:00</time>
      </trkpt>
      <trkpt lat="44.57745" lon="6.05225">
        <ele>1056</ele>
        <time>2019-12-29T13:58:32+01:00</time>
      </trkpt>
      <trkpt lat="44.57722" lon="6.05227">
        <ele>1054</ele>
        <time>2019-12-29T13:58:47+01:00</time>
      </trkpt>
      <trkpt lat="44.577" lon="6.05223">
        <ele>1053</ele>
        <time>2019-12-29T13:59:04+01:00</time>
      </trkpt>
      <trkpt lat="44.57674" lon="6.05222">
        <ele>1050</ele>
        <time>2019-12-29T13:59:19+01:00</time>
      </trkpt>
      <trkpt lat="44.57696" lon="6.05243">
        <ele>1051</ele>
        <time>2019-12-29T14:00:09+01:00</time>
      </trkpt>
      <trkpt lat="44.57717" lon="6.05267">
        <ele>1050</ele>
        <time>2019-12-29T14:01:13+01:00</time>
      </trkpt>
      <trkpt lat="44.57729" lon="6.05287">
        <ele>1050</ele>
        <time>2019-12-29T14:01:33+01:00</time>
      </trkpt>
      <trkpt lat="44.57747" lon="6.05306">
        <ele>1050</ele>
        <time>2019-12-29T14:03:22+01:00</time>
      </trkpt>
      <trkpt lat="44.57759" lon="6.05328">
        <ele>1049</ele>
        <time>2019-12-29T14:03:37+01:00</time>
      </trkpt>
      <trkpt lat="44.57777" lon="6.0537">
        <ele>1048</ele>
        <time>2019-12-29T14:03:49+01:00</time>
      </trkpt>
      <trkpt lat="44.57796" lon="6.05387">
        <ele>1048</ele>
        <time>2019-12-29T14:04:12+01:00</time>
      </trkpt>
      <trkpt lat="44.57819" lon="6.05409">
        <ele>1047</ele>
        <time>2019-12-29T14:04:33+01:00</time>
      </trkpt>
      <trkpt lat="44.57837" lon="6.05429">
        <ele>1048</ele>
        <time>2019-12-29T14:04:49+01:00</time>
      </trkpt>
      <trkpt lat="44.57849" lon="6.05435">
        <ele>1049</ele>
        <time>2019-12-29T14:05:06+01:00</time>
      </trkpt>
      <trkpt lat="44.57859" lon="6.05462">
        <ele>1048</ele>
        <time>2019-12-29T14:05:48+01:00</time>
      </trkpt>
      <trkpt lat="44.5787" lon="6.0548">
        <ele>1048</ele>
        <time>2019-12-29T14:06:06+01:00</time>
      </trkpt>
      <trkpt lat="44.57882" lon="6.05485">
        <ele>1049</ele>
        <time>2021-05-09T13:08:03+02:00</time>
      </trkpt>
      <trkpt lat="44.57911" lon="6.05479">
        <ele>1053</ele>
        <time>2019-12-29T14:06:15+01:00</time>
      </trkpt>
      <trkpt lat="44.57928" lon="6.05491">
        <ele>1053</ele>
        <time>2019-12-29T14:07:44+01:00</time>
      </trkpt>
      <trkpt lat="44.57939" lon="6.05514">
        <ele>1052</ele>
        <time>2019-12-29T14:07:57+01:00</time>
      </trkpt>
      <trkpt lat="44.57942" lon="6.05527">
        <ele>1052</ele>
        <time>2019-12-29T14:09:35+01:00</time>
      </trkpt>
      <trkpt lat="44.57961" lon="6.05552">
        <ele>1052</ele>
        <time>2019-12-29T14:09:51+01:00</time>
      </trkpt>
      <trkpt lat="44.57985" lon="6.05581">
        <ele>1053</ele>
        <time>2019-12-29T14:10:12+01:00</time>
      </trkpt>
      <trkpt lat="44.58006" lon="6.0561">
        <ele>1053</ele>
        <time>2019-12-29T14:10:31+01:00</time>
      </trkpt>
      <trkpt lat="44.58024" lon="6.05638">
        <ele>1053</ele>
        <time>2019-12-29T14:10:48+01:00</time>
      </trkpt>
      <trkpt lat="44.58043" lon="6.05666">
        <ele>1052</ele>
        <time>2019-12-29T14:11:08+01:00</time>
      </trkpt>
      <trkpt lat="44.5806" lon="6.05686">
        <ele>1052</ele>
        <time>2019-12-29T14:11:25+01:00</time>
      </trkpt>
      <trkpt lat="44.58077" lon="6.05704">
        <ele>1052</ele>
        <time>2019-12-29T14:11:46+01:00</time>
      </trkpt>
      <trkpt lat="44.58092" lon="6.05732">
        <ele>1050</ele>
        <time>2019-12-29T14:12:06+01:00</time>
      </trkpt>
      <trkpt lat="44.58106" lon="6.05774">
        <ele>1048</ele>
        <time>2019-12-29T14:12:28+01:00</time>
      </trkpt>
      <trkpt lat="44.58118" lon="6.05796">
        <ele>1048</ele>
        <time>2019-12-29T14:12:50+01:00</time>
      </trkpt>
      <trkpt lat="44.58106" lon="6.05817">
        <ele>1046</ele>
        <time>2019-12-29T14:13:07+01:00</time>
      </trkpt>
      <trkpt lat="44.5812" lon="6.05844">
        <ele>1047</ele>
        <time>2019-12-29T14:13:31+01:00</time>
      </trkpt>
      <trkpt lat="44.58136" lon="6.05868">
        <ele>1049</ele>
        <time>2019-12-29T14:13:50+01:00</time>
      </trkpt>
      <trkpt lat="44.58152" lon="6.05894">
        <ele>1050</ele>
        <time>2019-12-29T14:14:09+01:00</time>
      </trkpt>
      <trkpt lat="44.58169" lon="6.05915">
        <ele>1050</ele>
        <time>2019-12-29T14:14:27+01:00</time>
      </trkpt>
      <trkpt lat="44.58204" lon="6.05928">
        <ele>1053</ele>
        <time>2019-12-29T14:14:48+01:00</time>
      </trkpt>
    </trkseg>
  </trk>
</gpx>